Latest Weather Observations for Maningrida Airport

IDD60801

Issued at 8:31 pm CST Tuesday 22 August 2017 (issued every 30 minutes, with the page automatically refreshed every 10 minutes)

About weather observations | Map of weather stations | Latest weather observations for NT | Other Formats
Station Details ID: 014405 Name: MANINGRIDA AIRPORT Lat: -12.06 Lon: 134.23 Height: 28.1 m
Data from the previous 72 hours. | See also: Recent months at Maningrida Airport
Date/Time
CST
Temp
°C
App
Temp
°C
Dew
Point
°C
Rel
Hum
%
Delta-T
°C
Wind Press
QNH
hPa
Press
MSL
hPa
Rain since
9am
mm
Dir  Spd
km/h
Gust
km/h
Spd
kts
Gust
kts
22/08:30pm 25.3 27.1 21.2 78 2.7 ENE 13 20 7 11 1013.7 1013.5 0.0
22/08:00pm 25.4 27.2 21.1 77 2.8 ENE 13 17 7 9 1013.4 1013.2 0.0
22/07:30pm 25.5 27.1 20.7 75 3.2 ENE 13 19 7 10 1013.1 1012.9 0.0
22/07:00pm 25.6 27.6 20.8 75 3.2 ENE 11 17 6 9 1012.8 1012.6 0.0
22/06:30pm 26.1 27.2 20.4 71 3.7 ENE 15 20 8 11 1012.4 1012.2 0.0
22/06:00pm 26.9 28.1 20.0 66 4.5 ENE 13 19 7 10 1012.1 1011.9 0.0
22/05:30pm 27.6 28.3 19.7 62 5.1 ENE 15 24 8 13 1012.0 1011.8 0.0
22/05:00pm 28.0 27.3 18.7 57 6.0 ENE 20 28 11 15 1011.8 1011.6 0.0
22/04:30pm 28.7 28.3 18.8 55 6.4 ENE 19 26 10 14 1011.8 1011.6 0.0
22/04:00pm 29.4 29.3 18.8 53 6.8 ENE 17 26 9 14 1011.9 1011.7 0.0
22/03:30pm 30.0 29.7 19.1 52 7.1 ENE 19 28 10 15 1012.1 1011.9 0.0
22/03:00pm 29.8 29.3 18.6 51 7.2 ENE 19 28 10 15 1012.3 1012.1 0.0
22/02:30pm 29.7 29.0 18.2 50 7.4 ENE 19 30 10 16 1012.7 1012.5 0.0
22/02:00pm 29.7 28.4 18.2 50 7.4 ENE 22 32 12 17 1013.1 1012.9 0.0
22/01:30pm 29.6 28.3 18.1 50 7.4 ENE 22 32 12 17 1013.3 1013.1 0.0
22/01:00pm 29.9 27.7 17.0 45 8.1 E 24 35 13 19 1013.7 1013.5 0.0
22/12:30pm 29.1 27.6 17.6 50 7.3 E 22 35 12 19 1014.2 1014.0 0.0
22/12:00pm 28.8 27.3 17.7 51 7.0 ENE 22 32 12 17 1014.7 1014.5 0.0
22/11:30am 29.3 28.7 18.4 51 7.0 ENE 19 32 10 17 1014.9 1014.7 0.0
22/11:00am 28.0 27.1 18.1 55 6.3 ENE 20 32 11 17 1015.1 1014.9 0.0
22/10:30am 27.3 26.3 18.9 60 5.4 NE 22 32 12 17 1015.2 1015.0 0.0
22/10:00am 27.1 26.3 18.4 59 5.5 ENE 20 35 11 19 1015.2 1015.0 0.0
22/09:30am 26.9 26.5 19.0 62 5.1 E 19 26 10 14 1015.1 1014.9 0.0
22/09:00am 26.1 27.3 20.7 72 3.5 ENE 15 24 8 13 1015.0 1014.8 0.0
22/08:30am 24.4 25.9 20.5 79 2.5 E 13 19 7 10 1014.9 1014.7 0.0
22/08:00am 23.1 25.0 20.6 86 1.6 ESE 11 15 6 8 1014.6 1014.4 0.0
22/07:30am 21.4 23.5 20.2 93 0.8 SE 9 11 5 6 1014.2 1014.0 0.0
22/07:00am 20.2 22.3 19.4 95 0.5 SSE 7 9 4 5 1013.9 1013.7 0.0
22/06:30am 20.5 22.4 19.7 95 0.5 SE 9 13 5 7 1013.6 1013.4 0.0
22/06:00am 20.8 22.3 19.8 94 0.6 SSE 11 11 6 6 1013.2 1013.0 0.0
22/05:30am 21.1 22.6 19.7 92 0.9 SSE 11 13 6 7 1013.1 1012.9 0.0
22/05:00am 21.4 22.9 19.7 90 1.1 SE 11 17 6 9 1013.1 1012.9 0.0
22/04:30am 21.3 22.4 19.6 90 1.1 SSE 13 17 7 9 1013.1 1012.9 0.0
22/04:00am 21.7 22.7 19.4 87 1.5 SE 13 19 7 10 1013.1 1012.9 0.0
22/03:30am 22.3 22.9 19.5 84 1.8 SE 15 17 8 9 1013.0 1012.8 0.0
22/03:00am 22.6 23.3 19.6 83 1.9 SE 15 19 8 10 1013.1 1012.9 0.0
22/02:30am 22.9 23.9 19.5 81 2.2 SE 13 19 7 10 1013.3 1013.1 0.0
22/02:00am 23.4 23.7 19.5 79 2.5 ESE 17 24 9 13 1013.4 1013.2 0.0
22/01:30am 24.0 24.3 19.7 77 2.8 ESE 17 26 9 14 1013.5 1013.3 0.0
22/01:00am 24.8 25.0 20.1 75 3.1 ESE 19 26 10 14 1013.4 1013.2 0.0
22/12:30am 25.4 27.6 21.9 81 2.3 E 13 19 7 10 1013.6 1013.4 0.0
22/12:00am 25.6 27.6 21.5 78 2.7 E 13 19 7 10 1013.6 1013.4 0.0
 
Date/Time
CST
Temp
°C
App
Temp
°C
Dew
Point
°C
Rel
Hum
%
Delta-T
°C
Wind Press
QNH
hPa
Press
MSL
hPa
Rain since
9am
mm
Dir  Spd
km/h
Gust
km/h
Spd
kts
Gust
kts
21/11:30pm 25.1 27.5 21.6 81 2.3 ENE 11 17 6 9 1013.7 1013.5 0.0
21/11:00pm 24.8 27.7 21.1 80 2.4 E 7 11 4 6 1013.6 1013.4 0.0
21/10:30pm 24.8 27.6 20.9 79 2.6 E 7 11 4 6 1013.6 1013.4 0.0
21/10:00pm 24.9 27.3 20.8 78 2.7 ENE 9 11 5 6 1013.5 1013.3 0.0
21/09:30pm 24.9 27.4 21.0 79 2.6 ENE 9 13 5 7 1013.3 1013.1 0.0
21/09:00pm 25.0 28.0 21.3 80 2.4 ENE 7 11 4 6 1013.1 1012.9 0.0
21/08:30pm 25.0 28.0 21.3 80 2.4 ENE 7 9 4 5 1012.9 1012.7 0.0
21/08:00pm 25.1 28.1 21.2 79 2.6 ENE 7 11 4 6 1012.6 1012.4 0.0
21/07:30pm 25.3 27.8 21.0 77 2.8 ENE 9 13 5 7 1012.3 1012.1 0.0
21/07:00pm 25.6 27.9 20.6 74 3.3 ENE 9 13 5 7 1011.9 1011.7 0.0
21/06:30pm 26.1 27.4 20.2 70 3.9 ENE 13 17 7 9 1011.5 1011.3 0.0
21/06:00pm 26.8 27.4 19.4 64 4.8 ENE 15 22 8 12 1011.4 1011.2 0.0
21/05:30pm 28.0 29.0 19.5 60 5.5 NE 13 20 7 11 1011.1 1011.0 0.0
21/05:00pm 28.2 27.9 19.2 58 5.8 ENE 19 30 10 16 1011.0 1010.9 0.0
21/04:30pm 28.6 28.5 18.7 55 6.4 NE 17 33 9 18 1010.9 1010.8 0.0
21/04:00pm 29.3 28.7 18.4 51 7.0 ENE 19 28 10 15 1011.0 1010.9 0.0
21/03:30pm 29.4 28.2 17.6 49 7.5 NE 20 32 11 17 1011.0 1010.9 0.0
21/03:00pm 30.0 29.1 18.1 49 7.6 NE 20 32 11 17 1011.0 1010.9 0.0
21/02:30pm 29.7 28.6 17.8 48 7.6 ENE 20 32 11 17 1011.4 1011.2 0.0
21/02:00pm 29.6 28.7 17.8 49 7.5 ENE 19 26 10 14 1011.8 1011.6 0.0
21/01:30pm 29.7 29.1 17.5 48 7.7 ENE 17 26 9 14 1012.1 1011.9 0.0
21/01:00pm 29.8 29.2 17.6 48 7.8 NE 17 30 9 16 1012.5 1012.3 0.0
21/12:30pm 29.7 29.0 18.2 50 7.4 ENE 19 28 10 15 1012.8 1012.6 0.0
21/12:00pm 29.5 29.3 17.7 49 7.5 ENE 15 24 8 13 1013.3 1013.1 0.0
21/11:30am 28.9 28.2 17.4 49 7.3 ENE 17 28 9 15 1013.8 1013.6 0.0
21/11:00am 28.8 28.4 18.9 55 6.4 ENE 19 30 10 16 1014.0 1013.8 0.0
21/10:30am 27.4 27.7 18.7 59 5.6 ENE 15 20 8 11 1014.4 1014.2 0.0
21/10:00am 27.1 28.4 20.2 66 4.5 ESE 13 19 7 10 1014.5 1014.3 0.0
21/09:30am 25.9 27.9 20.0 70 3.8 ENE 9 17 5 9 1014.3 1014.1 0.0
21/09:00am 25.4 26.7 20.2 73 3.4 SE 13 17 7 9 1014.1 1013.9 0.0
21/08:30am 23.9 25.0 19.6 77 2.8 SSE 13 19 7 10 1013.9 1013.7 0.0
21/08:00am 22.2 23.1 18.4 79 2.4 S 11 15 6 8 1013.6 1013.4 0.0
21/07:30am 20.7 21.8 17.9 84 1.7 S 9 13 5 7 1013.4 1013.2 0.0
21/07:00am 19.2 20.0 17.2 88 1.2 S 9 11 5 6 1013.2 1013.0 0.0
21/06:30am 18.8 19.3 16.6 87 1.3 S 9 13 5 7 1012.9 1012.7 0.0
21/06:00am 18.6 18.6 16.2 86 1.4 SSW 11 15 6 8 1012.5 1012.3 0.0
21/05:30am 18.5 18.8 16.1 86 1.4 S 9 11 5 6 1012.3 1012.1 0.0
21/05:00am 18.8 19.2 16.4 86 1.4 SSW 9 13 5 7 1012.1 1011.9 0.0
21/04:30am 18.8 19.3 16.6 87 1.3 SSW 9 13 5 7 1012.0 1011.8 0.0
21/04:00am 19.2 20.0 17.2 88 1.2 SSW 9 13 5 7 1012.0 1011.8 0.0
21/03:30am 19.3 20.3 16.9 86 1.5 SSW 7 11 4 6 1011.9 1011.7 0.0
21/03:00am 20.3 20.9 16.9 81 2.1 S 9 11 5 6 1012.0 1011.8 0.0
21/02:30am 20.7 21.5 17.3 81 2.1 SE 9 13 5 7 1012.2 1012.0 0.0
21/02:00am 21.0 21.2 16.8 77 2.6 SSE 11 13 6 7 1012.3 1012.1 0.0
21/01:30am 21.9 22.1 16.8 73 3.1 ESE 11 17 6 9 1012.5 1012.3 0.0
21/01:00am 22.5 22.3 16.8 70 3.5 ESE 13 19 7 10 1012.8 1012.6 0.0
21/12:30am 23.3 22.3 16.6 66 4.1 ESE 17 26 9 14 1013.0 1012.8 0.0
21/12:00am 23.5 22.1 16.5 65 4.3 ESE 19 26 10 14 1012.9 1012.7 0.0
 
Date/Time
CST
Temp
°C
App
Temp
°C
Dew
Point
°C
Rel
Hum
%
Delta-T
°C
Wind Press
QNH
hPa
Press
MSL
hPa
Rain since
9am
mm
Dir  Spd
km/h
Gust
km/h
Spd
kts
Gust
kts
20/11:30pm 23.7 22.9 17.0 66 4.1 ESE 17 22 9 12 1013.2 1013.0 0.0
20/11:00pm 23.9 24.5 19.4 76 2.9 E 15 20 8 11 1013.0 1012.8 0.0
20/10:30pm 24.4 27.4 21.9 86 1.7 E 9 13 5 7 1013.0 1012.8 0.0
20/10:00pm 24.8 27.8 21.9 84 1.9 E 9 13 5 7 1012.9 1012.7 0.0
20/09:30pm 24.9 27.8 21.8 83 2.1 E 9 13 5 7 1012.5 1012.3 0.0
20/09:00pm 25.2 27.7 21.7 81 2.3 E 11 15 6 8 1012.4 1012.2 0.0
20/08:30pm 25.4 27.7 21.3 78 2.7 E 11 15 6 8 1012.2 1012.0 0.0
20/08:00pm 25.5 28.1 21.2 77 2.8 E 9 15 5 8 1011.9 1011.7 0.0
20/07:30pm 25.8 27.9 21.0 75 3.2 ENE 11 15 6 8 1011.7 1011.5 0.0
20/07:00pm 26.2 27.9 21.0 73 3.4 ENE 13 20 7 11 1011.1 1011.0 0.0
20/06:30pm 26.6 28.2 21.4 73 3.5 ENE 15 20 8 11 1010.8 1010.7 0.0
20/06:00pm 27.2 28.5 20.8 68 4.2 ENE 15 22 8 12 1010.5 1010.4 0.0
20/05:30pm 28.5 28.8 19.7 59 5.7 ENE 17 24 9 13 1010.2 1010.1 0.0
20/05:00pm 29.0 28.5 18.7 53 6.6 ENE 19 24 10 13 1010.1 1010.0 0.0
20/04:30pm 29.9 29.8 18.7 51 7.2 NE 17 24 9 13 1009.9 1009.8 0.0
20/04:00pm 31.4 31.3 18.7 46 8.2 NE 17 22 9 12 1010.1 1010.0 0.0
20/03:30pm 30.9 30.6 18.3 47 8.1 ENE 17 26 9 14 1010.2 1010.1 0.0
20/03:00pm 31.2 30.8 18.9 48 8.0 NE 19 26 10 14 1010.6 1010.5 0.0
20/02:30pm 30.6 29.7 18.3 47 7.9 NE 20 28 11 15 1010.7 1010.6 0.0
20/02:00pm 31.9 31.7 18.5 45 8.7 ENE 17 26 9 14 1010.8 1010.7 0.0
20/01:30pm 33.5 31.2 14.0 30 11.9 SE 19 33 10 18 1011.5 1011.3 0.0
20/01:00pm 32.9 29.8 14.5 33 11.3 SE 24 32 13 17 1012.2 1012.0 0.0
20/12:30pm 32.0 28.8 13.2 31 11.3 SE 22 32 12 17 1012.7 1012.5 0.0
20/12:00pm 31.9 29.4 14.1 34 10.8 ESE 20 30 11 16 1013.2 1013.0 0.0
20/11:30am 30.6 28.1 16.2 41 9.0 ESE 24 35 13 19 1013.8 1013.6 0.0
20/11:00am 29.7 26.4 16.1 43 8.5 ESE 28 37 15 20 1014.4 1014.2 0.0
20/10:30am 28.7 27.0 17.2 49 7.2 ESE 22 37 12 20 1014.6 1014.4 0.0
20/10:00am 27.6 26.7 18.3 57 5.9 SE 20 35 11 19 1014.9 1014.7 0.0
20/09:30am 26.4 27.3 20.0 68 4.2 ESE 15 24 8 13 1015.1 1014.9 0.0
20/09:00am 24.6 25.7 20.5 78 2.7 SE 15 26 8 14 1015.1 1014.9 0.2
20/08:30am 23.4 24.8 20.3 83 2.0 SE 13 19 7 10 1014.9 1014.7 0.2
20/08:00am 21.5 22.9 19.6 89 1.2 SSE 11 15 6 8 1014.7 1014.5 0.2
20/07:30am 20.6 22.9 19.8 95 0.5 SSE 7 9 4 5 1014.4 1014.2 0.2
20/07:00am 19.9 21.5 19.2 96 0.4 SSE 9 11 5 6 1014.3 1014.1 0.2
20/06:30am 19.7 20.9 19.0 96 0.4 SE 11 13 6 7 1014.1 1013.9 0.2
20/06:00am 19.8 21.0 19.1 96 0.4 SSE 11 13 6 7 1013.6 1013.4 0.2
20/05:30am 20.0 21.6 19.2 95 0.5 SSE 9 11 5 6 1013.2 1013.0 0.2
20/05:00am 20.1 22.2 18.9 93 0.8 SE 6 7 3 4 1013.0 1012.8 0.2
20/04:30am 20.6 22.3 19.4 93 0.8 SSE 9 11 5 6 1012.7 1012.5 0.0
20/04:00am 20.8 22.6 19.6 93 0.8 SSE 9 13 5 7 1012.7 1012.5 0.0
20/03:30am 21.0 23.1 20.2 95 0.5 SSE 9 13 5 7 1012.7 1012.5 0.0
20/03:00am 20.8 23.2 20.0 95 0.5 SSE 7 11 4 6 1012.8 1012.6 0.0
20/02:30am 20.7 23.0 19.4 92 0.8 S 6 6 3 3 1012.8 1012.6 0.0
20/02:00am 21.6 23.7 20.2 92 0.9 S 9 11 5 6 1012.9 1012.7 0.0
20/01:30am 22.0 24.3 20.6 92 0.9 SSE 9 11 5 6 1013.2 1013.0 0.0
20/01:00am 22.2 24.6 20.8 92 0.9 SSE 9 11 5 6 1013.3 1013.1 0.0
20/12:30am 22.4 24.5 20.9 91 1.0 SE 11 15 6 8 1013.4 1013.2 0.0
20/12:00am 22.6 25.3 21.4 93 0.8 SSE 9 11 5 6 1013.6 1013.4 0.0
 
Date/Time
CST
Temp
°C
App
Temp
°C
Dew
Point
°C
Rel
Hum
%
Delta-T
°C
Wind Press
QNH
hPa
Press
MSL
hPa
Rain since
9am
mm
Dir  Spd
km/h
Gust
km/h
Spd
kts
Gust
kts
19/11:30pm 23.1 26.0 21.7 92 0.9 SE 9 9 5 5 1013.5 1013.3 0.0
19/11:00pm 23.7 26.4 22.1 91 1.1 ESE 11 15 6 8 1013.7 1013.5 0.0
19/10:30pm 23.8 26.9 22.2 91 1.1 ESE 9 11 5 6 1013.8 1013.6 0.0
19/10:00pm 24.1 27.6 22.2 89 1.3 E 7 11 4 6 1013.7 1013.5 0.0
19/09:30pm 24.4 28.0 22.3 88 1.4 E 7 9 4 5 1013.5 1013.3 0.0
19/09:00pm 24.6 27.9 21.9 85 1.8 ENE 7 11 4 6 1013.3 1013.1 0.0

Other Formats:

Comma delimited format used in spreadsheet applications
http://www.bom.gov.au/fwo/IDD60801/IDD60801.95142.axf

JavaScript Object Notation format (JSON) in row-major order
http://www.bom.gov.au/fwo/IDD60801/IDD60801.95142.json